Weather at Presbyterian Belen Clinic Heliport

Public forecast

Using degrees Fahrenheit for public forecast. Weather courtesy of forecast.io.

Closest aviation weather report (METAR) to Presbyterian Belen Clinic Heliport

Closest report is Albuquerque International Sunport, 24.8 nm (45.9 km) NNE.

2024/07/12 23:52 (retrieved 17 minutes ago)

KABQ 122352Z 09023G35KT 10SM VCTS SCT110CB BKN160 BKN250 32/07 A3018 RMK AO2 PK WND 09035/2352 SLP126 OCNL LTGICCG VC E TS VC E MOV SW CB DSNT NW 60000 T03220072 10350 20300 55005

Closest aviation forecast (TAF) to Presbyterian Belen Clinic Heliport

Closest forecast is Biggs Army Air Field (Fort Bliss), 169.8 nm (314.4 km) S.

2024/07/12 19:53 (retrieved 4 hours ago)

TAF KBIF 121900Z 1219/1401 09010G20KT 9999 SKC 510606 QNH3005INS BECMG 1303/1304 VRB06KT 9999 SKC QNH3014INS BECMG 1320/1321 10010G15KT 9999 SKC 510606 QNH3009INS TX34/1320Z TN24/1311Z